createdAt,value
2017-09-01T00:00:14.633Z,7.12
2017-09-01T00:01:21.670Z,6.40
2017-09-01T00:02:28.528Z,6.28
2017-09-01T00:03:35.702Z,5.93
2017-09-01T00:04:42.490Z,6.60
2017-09-01T00:05:48.546Z,6.62
2017-09-01T00:06:55.392Z,6.78
2017-09-01T00:08:01.468Z,7.05
2017-09-01T00:09:08.245Z,7.15
2017-09-01T00:10:15.416Z,9.23
2017-09-01T00:11:21.301Z,7.03
2017-09-01T00:12:27.351Z,5.80
2017-09-01T00:13:33.413Z,8.07
2017-09-01T00:14:39.536Z,7.35
2017-09-01T00:15:45.707Z,7.32
2017-09-01T00:16:51.784Z,8.32
2017-09-01T00:17:57.920Z,8.25
2017-09-01T00:19:04.061Z,8.15
2017-09-01T00:20:12.103Z,7.32
2017-09-01T00:21:18.269Z,8.00
2017-09-01T00:22:24.828Z,7.90
2017-09-01T00:23:31.185Z,6.90
2017-09-01T00:24:37.243Z,7.37
2017-09-01T00:25:43.306Z,7.53
2017-09-01T00:26:49.401Z,8.07
2017-09-01T00:27:56.956Z,6.80
2017-09-01T00:29:02.990Z,7.45
2017-09-01T00:30:09.528Z,7.85
2017-09-01T00:31:15.398Z,7.87
2017-09-01T00:32:21.464Z,7.85
2017-09-01T00:33:27.564Z,7.82
2017-09-01T00:34:33.747Z,9.50
2017-09-01T00:35:39.859Z,7.55
2017-09-01T00:36:45.974Z,7.43
2017-09-01T00:37:52.815Z,7.28
2017-09-01T00:38:58.929Z,10.48
2017-09-01T00:40:04.995Z,7.25
2017-09-01T00:41:12.436Z,7.78
2017-09-01T00:42:18.183Z,7.97
2017-09-01T00:43:24.285Z,8.20
2017-09-01T00:44:30.485Z,7.93
2017-09-01T00:45:37.426Z,8.63
2017-09-01T00:46:43.496Z,8.20
2017-09-01T00:47:49.542Z,7.75
2017-09-01T00:48:55.676Z,7.57
2017-09-01T00:50:02.241Z,7.65
2017-09-01T00:51:07.963Z,6.68
2017-09-01T00:52:14.100Z,6.72
2017-09-01T00:53:21.155Z,6.95
2017-09-01T00:54:28.257Z,6.93
2017-09-01T00:55:35.701Z,7.15
2017-09-01T00:56:41.182Z,7.57
2017-09-01T00:57:47.422Z,8.13
2017-09-01T00:58:54.241Z,6.95
2017-09-01T01:00:01.383Z,7.50
2017-09-01T01:01:07.660Z,7.82
2017-09-01T01:02:13.835Z,6.87
2017-09-01T01:03:20.106Z,6.43
2017-09-01T01:04:25.904Z,7.30
2017-09-01T01:05:32.081Z,7.05
2017-09-01T01:06:38.158Z,7.72
2017-09-01T01:07:44.392Z,6.97
2017-09-01T01:08:50.838Z,8.70
2017-09-01T01:09:56.999Z,7.65
2017-09-01T01:11:02.213Z,7.30
2017-09-01T01:12:08.127Z,7.68
2017-09-01T01:13:14.291Z,6.75
2017-09-01T01:14:20.382Z,8.05
2017-09-01T01:15:26.346Z,6.93
2017-09-01T01:16:32.697Z,6.68
2017-09-01T01:17:38.631Z,9.70
2017-09-01T01:18:44.361Z,7.40
2017-09-01T01:19:49.577Z,7.97
2017-09-01T01:20:54.904Z,9.35
2017-09-01T01:22:00.094Z,7.87
2017-09-01T01:23:05.440Z,10.07
2017-09-01T01:24:11.522Z,7.05
2017-09-01T01:25:17.847Z,7.87
2017-09-01T01:26:23.982Z,8.13
2017-09-01T01:27:29.349Z,7.87
2017-09-01T01:28:35.661Z,8.27
2017-09-01T01:29:41.388Z,7.82
2017-09-01T01:30:46.757Z,9.13
2017-09-01T01:31:52.746Z,7.50
2017-09-01T01:32:58.369Z,8.65
2017-09-01T01:34:03.757Z,12.55
2017-09-01T01:35:08.895Z,7.90
2017-09-01T01:36:14.216Z,7.15
2017-09-01T01:37:19.635Z,8.63
2017-09-01T01:38:25.084Z,7.22
2017-09-01T01:39:31.137Z,8.02
2017-09-01T01:40:36.676Z,9.05
2017-09-01T01:41:42.777Z,8.65
2017-09-01T01:42:48.552Z,8.23
2017-09-01T01:43:54.471Z,7.53
2017-09-01T01:45:00.292Z,7.75
2017-09-01T01:46:06.759Z,9.60
2017-09-01T01:47:12.099Z,7.72
2017-09-01T01:48:17.607Z,8.75
2017-09-01T01:49:23.410Z,7.15
2017-09-01T01:50:28.958Z,7.82
2017-09-01T01:51:34.734Z,8.73
2017-09-01T01:52:41.196Z,7.72
2017-09-01T01:53:46.511Z,8.10
2017-09-01T01:54:54.976Z,8.93
2017-09-01T01:56:00.163Z,8.05
2017-09-01T01:57:06.162Z,9.75
2017-09-01T01:58:11.535Z,8.55
2017-09-01T01:59:17.239Z,8.45
2017-09-01T02:00:23.199Z,9.45
2017-09-01T02:01:28.546Z,8.82
2017-09-01T02:02:34.025Z,8.60
2017-09-01T02:03:40.066Z,10.18
2017-09-01T02:04:45.463Z,9.77
2017-09-01T02:05:51.960Z,10.15
2017-09-01T02:06:58.528Z,11.10
2017-09-01T02:08:03.745Z,12.02
2017-09-01T02:09:09.431Z,9.40
2017-09-01T02:10:16.003Z,9.43
2017-09-01T02:11:22.892Z,10.38
2017-09-01T02:12:28.975Z,9.43
2017-09-01T02:13:35.542Z,9.52
2017-09-01T02:14:41.213Z,10.38
2017-09-01T02:15:47.451Z,10.32
2017-09-01T02:16:53.548Z,9.27
2017-09-01T02:17:59.963Z,10.10
2017-09-01T02:19:06.597Z,8.95
2017-09-01T02:20:11.797Z,9.43
2017-09-01T02:21:18.162Z,10.75
2017-09-01T02:22:24.350Z,9.63
2017-09-01T02:23:29.599Z,10.38
2017-09-01T02:24:35.451Z,13.25
2017-09-01T02:25:40.874Z,11.05
2017-09-01T02:26:46.247Z,10.77
2017-09-01T02:27:52.048Z,10.98
2017-09-01T02:28:59.319Z,10.63
2017-09-01T02:30:04.654Z,10.13
2017-09-01T02:31:10.909Z,11.40
2017-09-01T02:32:16.612Z,12.15
2017-09-01T02:33:22.724Z,11.45
2017-09-01T02:34:29.703Z,11.23
2017-09-01T02:35:35.833Z,11.63
2017-09-01T02:36:44.026Z,10.73
2017-09-01T02:37:51.599Z,10.90
2017-09-01T02:38:57.660Z,10.05
2017-09-01T02:40:03.435Z,12.48
2017-09-01T02:41:10.753Z,11.18
2017-09-01T02:42:16.123Z,11.12
2017-09-01T02:43:22.475Z,12.37
2017-09-01T02:44:28.055Z,11.65
2017-09-01T02:45:35.326Z,11.38
2017-09-01T02:46:40.702Z,11.40
2017-09-01T02:47:47.080Z,12.00
2017-09-01T02:48:52.870Z,11.02
2017-09-01T02:49:58.823Z,11.43
2017-09-01T02:51:04.273Z,11.63
2017-09-01T02:52:09.697Z,11.85
2017-09-01T02:53:16.173Z,12.20
2017-09-01T02:54:22.289Z,10.80
2017-09-01T02:55:27.767Z,14.85
2017-09-01T02:56:33.116Z,10.38
2017-09-01T02:57:39.512Z,11.32
2017-09-01T02:58:45.533Z,11.68
2017-09-01T02:59:51.579Z,10.88
2017-09-01T03:00:56.972Z,10.40
2017-09-01T03:02:03.241Z,12.15
2017-09-01T03:03:08.425Z,12.02
2017-09-01T03:04:13.766Z,13.20
2017-09-01T03:05:21.328Z,11.18
2017-09-01T03:06:26.724Z,12.35
2017-09-01T03:07:32.907Z,11.12
2017-09-01T03:08:38.883Z,11.02
2017-09-01T03:09:45.679Z,12.07
2017-09-01T03:10:51.446Z,12.13
2017-09-01T03:11:58.499Z,11.93
2017-09-01T03:13:03.965Z,11.70
2017-09-01T03:14:10.290Z,11.95
2017-09-01T03:15:15.706Z,11.30
2017-09-01T03:16:21.584Z,12.07
2017-09-01T03:17:26.979Z,11.05
2017-09-01T03:18:33.333Z,11.40
2017-09-01T03:19:38.883Z,11.68
2017-09-01T03:20:44.829Z,10.90
2017-09-01T03:21:51.501Z,10.77
2017-09-01T03:22:57.791Z,13.77
2017-09-01T03:24:04.921Z,11.15
2017-09-01T03:25:11.097Z,11.45
2017-09-01T03:26:17.956Z,12.93
2017-09-01T03:27:24.297Z,11.45
2017-09-01T03:28:29.501Z,11.38
2017-09-01T03:29:34.856Z,12.63
2017-09-01T03:30:40.506Z,11.30
2017-09-01T03:31:46.877Z,12.77
2017-09-01T03:32:53.246Z,13.43
2017-09-01T03:33:58.842Z,13.25
2017-09-01T03:35:04.188Z,12.85
2017-09-01T03:36:11.902Z,14.20
2017-09-01T03:37:17.474Z,11.38
2017-09-01T03:38:23.405Z,12.05
2017-09-01T03:39:28.796Z,12.20
2017-09-01T03:40:34.320Z,12.27
2017-09-01T03:41:39.799Z,13.00
2017-09-01T03:42:45.292Z,13.77
2017-09-01T03:43:50.743Z,14.00
2017-09-01T03:44:56.242Z,12.93
2017-09-01T03:46:01.506Z,15.90
2017-09-01T03:47:07.091Z,13.35
2017-09-01T03:48:12.823Z,14.15
2017-09-01T03:49:18.587Z,15.60
2017-09-01T03:50:24.339Z,13.52
2017-09-01T03:51:30.000Z,14.15
2017-09-01T03:52:36.148Z,13.38
2017-09-01T03:53:50.904Z,13.05
2017-09-01T03:55:02.176Z,15.45
2017-09-01T03:56:08.975Z,13.25
2017-09-01T03:57:14.822Z,14.23
2017-09-01T03:58:28.963Z,15.68
2017-09-01T03:59:48.992Z,13.23
2017-09-01T04:01:02.000Z,15.52
2017-09-01T04:02:11.017Z,17.02
2017-09-01T04:03:16.849Z,17.20
2017-09-01T04:04:23.207Z,13.88
2017-09-01T04:05:29.345Z,14.45
2017-09-01T04:06:35.489Z,14.43
2017-09-01T04:07:41.804Z,12.60
2017-09-01T04:08:47.915Z,14.05
2017-09-01T04:09:53.722Z,13.98
2017-09-01T04:11:02.029Z,13.70
2017-09-01T04:12:08.532Z,13.68
2017-09-01T04:13:14.909Z,14.55
2017-09-01T04:14:21.084Z,13.50
2017-09-01T04:15:27.638Z,16.70
2017-09-01T04:16:33.760Z,13.98
2017-09-01T04:17:39.732Z,14.50
2017-09-01T04:18:45.913Z,14.00
2017-09-01T04:19:52.200Z,17.62
2017-09-01T04:20:59.565Z,13.43
2017-09-01T04:22:06.595Z,11.75
2017-09-01T04:23:12.845Z,13.40
2017-09-01T04:24:18.847Z,12.57
2017-09-01T04:25:25.140Z,13.20
2017-09-01T04:26:31.352Z,12.57
2017-09-01T04:27:38.377Z,11.73
2017-09-01T04:28:45.805Z,13.07
2017-09-01T04:29:51.689Z,14.13
2017-09-01T04:30:57.527Z,14.95
2017-09-01T04:32:03.367Z,14.00
2017-09-01T04:33:10.361Z,16.30
2017-09-01T04:34:16.780Z,15.55
2017-09-01T04:35:22.861Z,14.45
2017-09-01T04:36:29.305Z,15.80
2017-09-01T04:37:37.464Z,15.27
2017-09-01T04:38:43.722Z,17.05
2017-09-01T04:39:49.830Z,14.85
2017-09-01T04:40:55.176Z,14.23
2017-09-01T04:42:00.575Z,16.20
2017-09-01T04:43:05.990Z,14.07
2017-09-01T04:44:11.739Z,14.07
2017-09-01T04:45:17.838Z,16.65
2017-09-01T04:46:25.060Z,14.35
2017-09-01T04:47:31.144Z,15.45
2017-09-01T04:48:37.326Z,14.70
2017-09-01T04:49:43.401Z,17.20
2017-09-01T04:50:49.538Z,14.57
2017-09-01T04:51:55.667Z,18.15
2017-09-01T04:53:01.379Z,17.35
2017-09-01T04:54:07.617Z,16.20
2017-09-01T04:55:13.925Z,15.43
2017-09-01T04:56:19.869Z,14.65
2017-09-01T04:57:25.997Z,15.75
2017-09-01T04:58:32.860Z,16.42
2017-09-01T04:59:38.967Z,14.25
2017-09-01T05:00:44.430Z,14.95
2017-09-01T05:01:50.566Z,14.73
2017-09-01T05:02:56.797Z,14.13
2017-09-01T05:04:03.571Z,16.60
2017-09-01T05:05:09.778Z,17.37
2017-09-01T05:06:15.626Z,16.48
2017-09-01T05:07:21.813Z,16.37
2017-09-01T05:08:27.264Z,16.48
2017-09-01T05:09:33.387Z,14.45
2017-09-01T05:10:39.596Z,17.23
2017-09-01T05:11:46.000Z,16.35
2017-09-01T05:12:51.837Z,16.52
2017-09-01T05:13:58.031Z,15.35
2017-09-01T05:15:03.766Z,19.85
2017-09-01T05:16:10.625Z,16.37
2017-09-01T05:17:16.706Z,15.13
2017-09-01T05:18:22.911Z,14.65
2017-09-01T05:19:29.122Z,18.25
2017-09-01T05:20:35.274Z,18.67
2017-09-01T05:21:41.026Z,15.65
2017-09-01T05:22:47.144Z,16.75
2017-09-01T05:23:53.339Z,17.17
2017-09-01T05:24:59.555Z,17.10
2017-09-01T05:26:06.883Z,18.12
2017-09-01T05:27:12.952Z,14.80
2017-09-01T05:28:19.451Z,14.25
2017-09-01T05:29:26.134Z,15.18
2017-09-01T05:30:31.906Z,15.60
2017-09-01T05:31:39.861Z,18.05
2017-09-01T05:32:45.982Z,16.58
2017-09-01T05:33:52.772Z,21.50
2017-09-01T05:34:59.022Z,18.70
2017-09-01T05:36:05.080Z,16.73
2017-09-01T05:37:11.956Z,16.45
2017-09-01T05:38:18.048Z,20.77
2017-09-01T05:39:24.927Z,18.12
2017-09-01T05:40:33.037Z,16.67
2017-09-01T05:41:39.164Z,18.37
2017-09-01T05:42:45.278Z,16.08
2017-09-01T05:43:51.575Z,14.77
2017-09-01T05:44:57.712Z,19.35
2017-09-01T05:46:03.851Z,16.77
2017-09-01T05:47:09.920Z,16.50
2017-09-01T05:48:17.016Z,15.73
2017-09-01T05:49:23.810Z,16.17
2017-09-01T05:50:30.891Z,16.77
2017-09-01T05:51:37.312Z,16.67
2017-09-01T05:52:43.469Z,16.65
2017-09-01T05:53:49.633Z,15.73
2017-09-01T05:54:55.809Z,18.08
2017-09-01T05:56:02.137Z,15.02
2017-09-01T05:57:08.043Z,14.60
2017-09-01T05:58:14.119Z,13.50
2017-09-01T05:59:21.281Z,13.98
2017-09-01T06:00:28.469Z,13.85
2017-09-01T06:01:34.881Z,16.73
2017-09-01T06:02:42.243Z,12.02
2017-09-01T06:03:48.328Z,16.62
2017-09-01T06:04:55.077Z,13.73
2017-09-01T06:06:01.222Z,13.98
2017-09-01T06:07:07.312Z,13.02
2017-09-01T06:08:13.471Z,14.05
2017-09-01T06:09:20.289Z,17.87
2017-09-01T06:10:26.370Z,12.05
2017-09-01T06:11:32.488Z,16.40
2017-09-01T06:12:38.600Z,16.80
2017-09-01T06:13:44.836Z,17.23
2017-09-01T06:14:50.822Z,13.73
2017-09-01T06:15:57.013Z,12.65
2017-09-01T06:17:03.216Z,11.93
2017-09-01T06:18:09.318Z,11.48
2017-09-01T06:19:15.465Z,14.77
2017-09-01T06:20:21.725Z,13.05
2017-09-01T06:21:28.405Z,11.57
2017-09-01T06:22:34.004Z,15.38
2017-09-01T06:23:40.080Z,11.30
2017-09-01T06:24:46.333Z,16.15
2017-09-01T06:25:53.012Z,12.77
2017-09-01T06:26:59.192Z,11.60
2017-09-01T06:28:05.319Z,18.90
2017-09-01T06:29:12.551Z,12.40
2017-09-01T06:30:18.672Z,12.27
2017-09-01T06:31:24.742Z,12.20
2017-09-01T06:32:30.886Z,13.52
2017-09-01T06:33:36.963Z,13.18
2017-09-01T06:34:43.092Z,11.18
2017-09-01T06:35:49.174Z,12.10
2017-09-01T06:36:55.265Z,12.10
2017-09-01T06:38:01.209Z,12.85
2017-09-01T06:39:07.273Z,10.80
2017-09-01T06:40:15.831Z,11.40
2017-09-01T06:41:21.991Z,11.12
2017-09-01T06:42:29.834Z,10.75
2017-09-01T06:43:36.598Z,12.23
2017-09-01T06:44:42.719Z,11.00
2017-09-01T06:45:49.391Z,12.52
2017-09-01T06:46:55.619Z,13.45
2017-09-01T06:48:02.804Z,12.48
2017-09-01T06:49:09.076Z,10.93
2017-09-01T06:50:15.259Z,10.73
2017-09-01T06:51:21.725Z,12.85
2017-09-01T06:52:27.802Z,12.50
2017-09-01T06:53:33.973Z,12.65
2017-09-01T06:54:41.193Z,11.27
2017-09-01T06:55:47.301Z,12.25
2017-09-01T06:56:53.576Z,10.82
2017-09-01T06:57:59.844Z,10.27
2017-09-01T06:59:07.014Z,18.48
2017-09-01T07:00:13.150Z,11.63
2017-09-01T07:01:19.779Z,9.45
2017-09-01T07:02:26.494Z,9.30
2017-09-01T07:03:33.341Z,10.38
2017-09-01T07:04:39.502Z,11.82
2017-09-01T07:05:45.562Z,11.40
2017-09-01T07:06:51.719Z,8.60
2017-09-01T07:07:58.749Z,8.77
2017-09-01T07:09:04.174Z,10.95
2017-09-01T07:10:10.811Z,9.02
2017-09-01T07:11:17.630Z,10.65
2017-09-01T07:12:23.671Z,9.85
2017-09-01T07:13:30.258Z,10.02
2017-09-01T07:14:37.268Z,7.97
2017-09-01T07:15:44.491Z,8.20
2017-09-01T07:16:50.573Z,6.20
2017-09-01T07:17:56.680Z,8.02
2017-09-01T07:19:02.855Z,13.95
2017-09-01T07:20:08.905Z,12.65
2017-09-01T07:21:15.094Z,8.43
2017-09-01T07:22:21.902Z,9.13
2017-09-01T07:23:27.835Z,8.40
2017-09-01T07:24:33.942Z,10.50
2017-09-01T07:25:40.586Z,8.95
2017-09-01T07:26:46.963Z,8.27
2017-09-01T07:27:53.119Z,10.48
2017-09-01T07:28:59.798Z,7.30
2017-09-01T07:30:05.945Z,9.13
2017-09-01T07:31:12.064Z,10.07
2017-09-01T07:32:17.875Z,6.70
2017-09-01T07:33:24.020Z,6.30
2017-09-01T07:34:30.143Z,8.15
2017-09-01T07:35:36.815Z,7.70
2017-09-01T07:36:43.155Z,10.20
2017-09-01T07:37:49.408Z,6.07
2017-09-01T07:38:55.473Z,9.70
2017-09-01T07:40:01.619Z,9.60
2017-09-01T07:41:08.456Z,6.28
2017-09-01T07:42:14.634Z,6.40
2017-09-01T07:43:20.936Z,5.55
2017-09-01T07:44:27.004Z,6.22
2017-09-01T07:45:33.219Z,8.85
2017-09-01T07:46:39.353Z,6.05
2017-09-01T07:47:45.408Z,4.90
2017-09-01T07:48:51.595Z,4.85
2017-09-01T07:49:57.788Z,7.55
2017-09-01T07:51:04.803Z,4.43
2017-09-01T07:52:11.644Z,6.35
2017-09-01T07:53:17.783Z,6.55
2017-09-01T07:54:23.976Z,7.10
2017-09-01T07:55:30.042Z,5.85
2017-09-01T07:56:36.941Z,7.37
2017-09-01T07:57:43.127Z,4.47
2017-09-01T07:58:49.341Z,6.62
2017-09-01T07:59:55.446Z,6.57
2017-09-01T08:01:02.317Z,5.60
2017-09-01T08:02:08.308Z,5.20
2017-09-01T08:03:14.455Z,6.35
2017-09-01T08:04:26.772Z,7.90
2017-09-01T08:05:33.290Z,6.65
2017-09-01T08:06:39.966Z,6.30
2017-09-01T08:07:46.239Z,5.97
2017-09-01T08:08:52.377Z,6.37
2017-09-01T08:09:58.491Z,8.88
2017-09-01T08:11:05.475Z,7.15
2017-09-01T08:12:11.419Z,8.35
2017-09-01T08:13:17.531Z,6.95
2017-09-01T08:14:23.721Z,8.80
2017-09-01T08:15:31.137Z,6.55
2017-09-01T08:16:37.185Z,5.37
2017-09-01T08:17:43.386Z,5.47
2017-09-01T08:18:49.488Z,6.40
2017-09-01T08:19:55.435Z,6.60
2017-09-01T08:21:01.506Z,7.50
2017-09-01T08:22:07.575Z,5.30
2017-09-01T08:23:13.763Z,7.28
2017-09-01T08:24:19.917Z,8.45
2017-09-01T08:25:26.031Z,10.13
2017-09-01T08:26:31.999Z,6.00
2017-09-01T08:27:38.150Z,6.37
2017-09-01T08:28:44.059Z,9.60
2017-09-01T08:29:50.204Z,7.22
2017-09-01T08:30:56.242Z,7.55
2017-09-01T08:32:02.434Z,6.53
2017-09-01T08:33:08.523Z,7.95
2017-09-01T08:34:14.629Z,7.12
2017-09-01T08:35:21.494Z,8.85
2017-09-01T08:36:27.540Z,9.57
2017-09-01T08:37:33.700Z,8.57
2017-09-01T08:38:40.601Z,8.90
2017-09-01T08:39:47.061Z,7.18
2017-09-01T08:40:53.743Z,9.40
2017-09-01T08:41:59.960Z,5.70
2017-09-01T08:43:06.046Z,5.72
2017-09-01T08:44:12.601Z,7.15
2017-09-01T08:45:19.366Z,8.07
2017-09-01T08:46:25.409Z,9.65
2017-09-01T08:47:31.458Z,7.30
2017-09-01T08:48:37.752Z,9.25
2017-09-01T08:49:43.792Z,5.10
2017-09-01T08:50:49.868Z,6.22
2017-09-01T08:51:55.607Z,5.85
2017-09-01T08:53:01.539Z,5.53
2017-09-01T08:54:08.349Z,6.20
2017-09-01T08:55:14.382Z,6.37
2017-09-01T08:56:21.116Z,5.45
2017-09-01T08:57:27.169Z,5.60
2017-09-01T08:58:33.724Z,7.62
2017-09-01T08:59:39.696Z,8.25
2017-09-01T09:00:45.847Z,6.40
2017-09-01T09:01:51.953Z,6.30
2017-09-01T09:02:58.124Z,8.30
2017-09-01T09:04:05.013Z,8.45
2017-09-01T09:05:11.238Z,7.47
2017-09-01T09:06:17.284Z,5.75
2017-09-01T09:07:23.443Z,5.72
2017-09-01T09:08:29.626Z,6.15
2017-09-01T09:09:35.920Z,7.45
2017-09-01T09:10:42.245Z,5.75
2017-09-01T09:11:48.863Z,6.07
2017-09-01T09:12:55.013Z,8.05
2017-09-01T09:14:01.929Z,7.82
2017-09-01T09:15:08.010Z,6.43
2017-09-01T09:16:14.997Z,9.75
2017-09-01T09:17:22.242Z,6.47
2017-09-01T09:18:29.695Z,7.78
2017-09-01T09:19:37.075Z,5.60
2017-09-01T09:20:43.966Z,7.40
2017-09-01T09:21:50.131Z,7.85
2017-09-01T09:22:56.266Z,5.60
2017-09-01T09:24:03.009Z,5.45
2017-09-01T09:25:09.806Z,8.52
2017-09-01T09:26:15.937Z,5.40
2017-09-01T09:27:22.128Z,7.10
2017-09-01T09:28:28.296Z,7.47
2017-09-01T09:29:35.088Z,10.10
2017-09-01T09:30:41.904Z,8.00
2017-09-01T09:31:48.008Z,5.70
2017-09-01T09:32:58.418Z,5.70
2017-09-01T09:34:04.547Z,5.85
2017-09-01T09:35:10.629Z,5.20
2017-09-01T09:36:17.642Z,3.97
2017-09-01T09:37:23.733Z,6.28
2017-09-01T09:38:31.281Z,7.82
2017-09-01T09:39:44.810Z,6.47
2017-09-01T09:41:02.729Z,4.18
2017-09-01T09:42:08.467Z,5.12
2017-09-01T09:43:14.544Z,4.85
2017-09-01T09:44:20.724Z,5.18
2017-09-01T09:45:27.616Z,4.53
2017-09-01T09:46:34.081Z,4.35
2017-09-01T09:47:40.973Z,3.65
2017-09-01T09:48:48.618Z,5.30
2017-09-01T09:49:56.150Z,3.85
2017-09-01T09:51:02.202Z,4.30
2017-09-01T09:52:09.029Z,4.07
2017-09-01T09:53:18.389Z,5.12
2017-09-01T09:54:24.446Z,5.35
2017-09-01T09:55:30.785Z,5.37
2017-09-01T09:56:37.019Z,5.78
2017-09-01T09:57:43.143Z,4.07
2017-09-01T09:58:49.898Z,4.85
2017-09-01T09:59:56.002Z,3.03
2017-09-01T10:01:02.262Z,5.07
2017-09-01T10:02:09.803Z,5.75
2017-09-01T10:03:16.519Z,4.60
2017-09-01T10:04:23.184Z,4.10
2017-09-01T10:05:29.557Z,3.65
2017-09-01T10:06:36.759Z,5.07
2017-09-01T10:07:42.961Z,5.65
2017-09-01T10:08:50.224Z,4.68
2017-09-01T10:09:57.099Z,7.97
2017-09-01T10:11:05.306Z,5.22
2017-09-01T10:12:11.938Z,4.20
2017-09-01T10:13:18.221Z,5.75
2017-09-01T10:14:24.528Z,4.87
2017-09-01T10:15:30.596Z,3.70
2017-09-01T10:16:37.158Z,6.43
2017-09-01T10:17:43.097Z,4.15
2017-09-01T10:18:49.373Z,4.93
2017-09-01T10:19:56.043Z,2.33
2017-09-01T10:21:02.833Z,4.03
2017-09-01T10:22:10.637Z,6.03
2017-09-01T10:23:16.830Z,4.40
2017-09-01T10:24:22.886Z,2.40
2017-09-01T10:25:28.284Z,2.35
2017-09-01T10:26:33.626Z,3.80
2017-09-01T10:27:39.480Z,3.30
2017-09-01T10:28:45.798Z,3.62
2017-09-01T10:29:52.462Z,3.05
2017-09-01T10:30:59.251Z,7.18
2017-09-01T10:32:07.815Z,3.05
2017-09-01T10:33:15.090Z,4.30
2017-09-01T10:34:21.244Z,3.80
2017-09-01T10:35:28.917Z,4.25
2017-09-01T10:36:36.116Z,4.07
2017-09-01T10:37:42.760Z,5.45
2017-09-01T10:38:49.670Z,4.12
2017-09-01T10:39:57.590Z,5.12
2017-09-01T10:41:03.709Z,4.72
2017-09-01T10:42:09.812Z,3.33
2017-09-01T10:43:16.157Z,4.15
2017-09-01T10:44:22.385Z,2.95
2017-09-01T10:45:28.809Z,2.78
2017-09-01T10:46:34.891Z,3.87
2017-09-01T10:47:54.905Z,3.75
2017-09-01T10:49:12.277Z,3.85
2017-09-01T10:50:39.156Z,3.05
2017-09-01T10:52:09.560Z,3.10
2017-09-01T10:53:26.968Z,5.72
2017-09-01T10:54:44.024Z,4.60
2017-09-01T10:56:01.629Z,3.72
2017-09-01T10:57:33.333Z,4.35
2017-09-01T10:58:51.330Z,5.18
2017-09-01T10:59:58.081Z,4.15
2017-09-01T11:01:04.895Z,6.50
2017-09-01T11:02:10.944Z,4.32
2017-09-01T11:03:17.053Z,3.42
2017-09-01T11:04:23.705Z,3.75
2017-09-01T11:05:29.805Z,3.47
2017-09-01T11:06:37.172Z,3.85
2017-09-01T11:07:43.336Z,3.42
2017-09-01T11:08:49.492Z,5.22
2017-09-01T11:09:55.614Z,4.85
2017-09-01T11:11:03.306Z,5.60
2017-09-01T11:12:09.462Z,4.15
2017-09-01T11:13:15.856Z,6.95
2017-09-01T11:14:21.913Z,5.28
2017-09-01T11:15:27.983Z,4.55
2017-09-01T11:16:34.187Z,6.12
2017-09-01T11:17:40.827Z,3.50
2017-09-01T11:18:52.512Z,3.58
2017-09-01T11:20:04.005Z,4.10
2017-09-01T11:21:15.620Z,4.97
2017-09-01T11:22:27.245Z,4.57
2017-09-01T11:23:39.403Z,3.67
2017-09-01T11:24:45.500Z,6.97
2017-09-01T11:25:51.631Z,3.20
2017-09-01T11:26:57.753Z,3.97
2017-09-01T11:28:03.909Z,2.90
2017-09-01T11:29:11.166Z,4.30
2017-09-01T11:30:17.992Z,5.93
2017-09-01T11:31:25.292Z,3.50
2017-09-01T11:32:31.483Z,4.47
2017-09-01T11:33:40.191Z,6.60
2017-09-01T11:34:47.097Z,3.62
2017-09-01T11:35:55.220Z,3.22
2017-09-01T11:37:01.344Z,3.62
2017-09-01T11:38:07.773Z,6.72
2017-09-01T11:39:15.344Z,2.95
2017-09-01T11:40:22.774Z,4.00
2017-09-01T11:41:29.542Z,3.50
2017-09-01T11:42:36.025Z,2.47
2017-09-01T11:43:42.277Z,5.53
2017-09-01T11:44:49.124Z,3.47
2017-09-01T11:47:07.618Z,2.83
2017-09-01T11:48:13.724Z,2.62
2017-09-01T11:49:23.253Z,3.60
2017-09-01T11:50:29.624Z,4.78
2017-09-01T11:51:36.340Z,4.12
2017-09-01T11:52:43.993Z,4.15
2017-09-01T11:53:50.041Z,3.83
2017-09-01T11:54:58.858Z,5.15
2017-09-01T11:56:05.175Z,6.75
2017-09-01T11:57:12.039Z,4.43
2017-09-01T11:58:18.353Z,5.05
2017-09-01T11:59:24.542Z,6.00
2017-09-01T12:00:31.498Z,3.28
2017-09-01T12:01:37.750Z,4.95
2017-09-01T12:02:44.274Z,5.95
2017-09-01T12:03:50.379Z,7.10
2017-09-01T12:04:56.506Z,4.93
2017-09-01T12:06:02.236Z,3.50
2017-09-01T12:07:08.413Z,4.70
2017-09-01T12:08:17.382Z,5.35
2017-09-01T12:09:23.315Z,4.65
2017-09-01T12:10:29.782Z,5.15
2017-09-01T12:11:37.503Z,4.80
2017-09-01T12:12:44.906Z,5.18
2017-09-01T12:13:51.940Z,4.50
2017-09-01T12:14:58.695Z,5.20
2017-09-01T12:16:06.228Z,4.85
2017-09-01T12:17:13.386Z,4.15
2017-09-01T12:18:20.210Z,3.78
2017-09-01T12:19:26.720Z,4.65
2017-09-01T12:20:33.680Z,5.30
2017-09-01T12:21:40.686Z,7.43
2017-09-01T12:22:47.446Z,3.80
2017-09-01T12:23:55.589Z,3.90
2017-09-01T12:25:05.273Z,4.50
2017-09-01T12:26:11.792Z,4.05
2017-09-01T12:27:20.715Z,7.37
2017-09-01T12:28:27.865Z,4.00
2017-09-01T12:29:36.927Z,3.22
2017-09-01T12:30:45.317Z,3.80
2017-09-01T12:31:55.305Z,4.00
2017-09-01T12:33:03.990Z,3.50
2017-09-01T12:34:10.524Z,4.45
2017-09-01T12:35:17.093Z,3.58
2017-09-01T12:36:25.122Z,3.70
2017-09-01T12:37:32.419Z,4.37
2017-09-01T12:38:38.514Z,6.72
2017-09-01T12:39:44.908Z,4.30
2017-09-01T12:40:51.383Z,4.37
2017-09-01T12:41:57.574Z,4.87
2017-09-01T12:43:04.497Z,4.80
2017-09-01T12:44:10.740Z,3.97
2017-09-01T12:45:17.405Z,5.68
2017-09-01T12:46:25.630Z,5.07
2017-09-01T12:47:32.066Z,3.83
2017-09-01T12:48:38.160Z,5.37
2017-09-01T12:49:45.154Z,3.17
2017-09-01T12:50:57.837Z,2.90
2017-09-01T12:52:03.940Z,6.62
2017-09-01T12:53:12.072Z,4.40
2017-09-01T12:54:18.188Z,2.97
2017-09-01T12:55:24.424Z,7.93
2017-09-01T12:56:30.925Z,4.40
2017-09-01T12:57:37.785Z,2.47
2017-09-01T12:58:44.170Z,2.78
2017-09-01T12:59:50.539Z,4.28
2017-09-01T13:00:56.793Z,6.82
2017-09-01T13:02:03.794Z,2.95
2017-09-01T13:03:10.099Z,4.90
2017-09-01T13:04:18.292Z,3.60
2017-09-01T13:05:26.658Z,5.15
2017-09-01T13:06:33.961Z,4.07
2017-09-01T13:07:40.272Z,5.20
2017-09-01T13:08:49.277Z,4.82
2017-09-01T13:09:55.975Z,2.65
2017-09-01T13:11:02.100Z,3.72
2017-09-01T13:12:09.136Z,2.95
2017-09-01T13:13:17.663Z,3.67
2017-09-01T13:14:24.151Z,2.30
2017-09-01T13:15:30.518Z,3.15
2017-09-01T13:16:37.444Z,2.20
2017-09-01T13:17:43.643Z,3.40
2017-09-01T13:18:50.871Z,2.87
2017-09-01T13:19:56.911Z,5.75
2017-09-01T13:21:04.025Z,3.37
2017-09-01T13:22:10.652Z,3.60
2017-09-01T13:23:17.029Z,6.75
2017-09-01T13:24:23.105Z,5.10
2017-09-01T13:25:29.527Z,2.30
2017-09-01T13:26:35.769Z,3.78
2017-09-01T13:27:41.938Z,2.37
2017-09-01T13:28:48.216Z,2.92
2017-09-01T13:29:55.024Z,4.78
2017-09-01T13:31:02.066Z,4.20
2017-09-01T13:32:08.425Z,2.72
2017-09-01T13:33:15.094Z,3.10
2017-09-01T13:34:21.365Z,8.05
2017-09-01T13:35:28.101Z,4.25
2017-09-01T13:36:34.574Z,2.90
2017-09-01T13:37:41.600Z,4.12
2017-09-01T13:38:48.435Z,2.12
2017-09-01T13:39:54.514Z,2.92
2017-09-01T13:41:00.511Z,4.10
2017-09-01T13:42:07.532Z,3.12
2017-09-01T13:43:13.808Z,4.72
2017-09-01T13:44:20.135Z,4.80
2017-09-01T13:45:26.853Z,3.60
2017-09-01T13:46:33.732Z,4.35
2017-09-01T13:47:40.773Z,5.25
2017-09-01T13:48:48.449Z,3.50
2017-09-01T13:49:56.908Z,13.75
2017-09-01T13:51:03.001Z,4.62
2017-09-01T13:52:09.156Z,4.55
2017-09-01T13:53:16.292Z,4.60
2017-09-01T13:54:22.334Z,2.95
2017-09-01T13:55:28.626Z,5.03
2017-09-01T13:56:34.785Z,3.83
2017-09-01T13:57:41.710Z,4.90
2017-09-01T13:58:48.116Z,2.90
2017-09-01T13:59:56.187Z,3.40
2017-09-01T14:01:04.050Z,3.72
2017-09-01T14:02:10.768Z,4.65
2017-09-01T14:03:17.284Z,2.60
2017-09-01T14:04:24.517Z,3.55
2017-09-01T14:05:31.080Z,5.43
2017-09-01T14:06:37.179Z,7.12
2017-09-01T14:07:44.431Z,4.90
2017-09-01T14:08:51.481Z,4.47
2017-09-01T14:09:58.331Z,4.50
2017-09-01T14:11:04.960Z,6.53
2017-09-01T14:12:11.789Z,3.62
2017-09-01T14:13:18.178Z,3.87
2017-09-01T14:14:24.520Z,3.58
2017-09-01T14:15:33.984Z,3.42
2017-09-01T14:16:49.279Z,4.68
2017-09-01T14:18:02.961Z,3.17
2017-09-01T14:19:14.895Z,3.50
2017-09-01T14:20:26.487Z,5.28
2017-09-01T14:21:39.202Z,6.87
2017-09-01T14:22:47.517Z,4.28
2017-09-01T14:23:55.325Z,3.25
2017-09-01T14:25:04.073Z,5.07
2017-09-01T14:26:11.058Z,4.25
2017-09-01T14:27:20.020Z,2.60
2017-09-01T14:28:29.287Z,4.82
2017-09-01T14:29:36.858Z,4.80
2017-09-01T14:30:43.908Z,8.95
2017-09-01T14:31:50.064Z,5.85
2017-09-01T14:32:56.799Z,3.50
2017-09-01T14:34:02.856Z,3.20
2017-09-01T14:35:08.989Z,5.10
2017-09-01T14:36:15.187Z,4.57
2017-09-01T14:37:21.291Z,4.80
2017-09-01T14:38:28.015Z,6.40
2017-09-01T14:39:34.319Z,5.00